Time;durP1;ratioP1;P1;durP2;ratioP2;P2;SDS_P1;SDS_P2;PMS_P1;PMS_P2;Temp;Humidity;BMP_temperature;BMP_pressure;BME280_temperature;BME280_humidity;BME280_pressure;Samples;Min_cycle;Max_cycle;Signal;HPM_P1;HPM_P2
2022/05/20 00:00:40;;;;;;;11.07;9.95;;;16.80;99.90;;;17.61;100.00;98449.69;5198391;28;20265;-66
2022/05/20 00:03:13;;;;;;;10.93;9.95;;;16.90;99.90;;;17.65;100.00;98448.97;5203868;28;20202;-65
2022/05/20 00:05:48;;;;;;;12.10;10.90;;;16.90;99.90;;;17.66;100.00;98445.59;5202110;28;20792;-65
2022/05/20 00:08:21;;;;;;;11.80;10.63;;;16.90;99.90;;;17.64;100.00;98445.50;5204262;28;20200;-64
2022/05/20 00:10:54;;;;;;;12.10;11.00;;;16.90;99.90;;;17.66;100.00;98448.16;5199661;28;20216;-64
2022/05/20 00:13:30;;;;;;;11.00;10.10;;;16.80;99.90;;;17.63;100.00;98453.22;5200928;28;20767;-65
2022/05/20 00:16:03;;;;;;;11.00;10.13;;;16.80;99.90;;;17.58;100.00;98449.56;5202564;28;20636;-64
2022/05/20 00:18:36;;;;;;;11.13;10.18;;;16.70;99.90;;;17.53;100.00;98450.25;5199701;28;20194;-65
2022/05/20 00:21:09;;;;;;;11.45;10.50;;;16.70;99.90;;;17.52;100.00;98448.50;5203149;28;20281;-64
2022/05/20 00:23:43;;;;;;;10.52;9.52;;;16.70;99.90;;;17.53;100.00;98449.38;5203801;28;20201;-63
2022/05/20 00:26:16;;;;;;;11.27;10.20;;;16.70;99.90;;;17.56;100.00;98447.78;5204370;28;20233;-65
2022/05/20 00:28:50;;;;;;;12.93;11.63;;;16.70;99.90;;;17.55;100.00;98448.63;5201312;28;20332;-66
2022/05/20 00:31:25;;;;;;;12.05;10.95;;;16.80;99.90;;;17.47;100.00;98447.44;5199232;28;20197;-65
2022/05/20 00:33:59;;;;;;;9.98;9.18;;;16.60;99.90;;;17.43;100.00;98449.84;5198822;28;20202;-65
2022/05/20 00:36:32;;;;;;;11.50;10.48;;;16.50;99.90;;;17.36;100.00;98453.00;5201405;28;20245;-65
2022/05/20 00:39:05;;;;;;;11.18;10.18;;;16.40;99.90;;;17.29;100.00;98455.34;5203934;28;20237;-65
2022/05/20 00:41:39;;;;;;;11.25;10.15;;;16.30;99.90;;;17.23;100.00;98449.94;5201935;28;20202;-65
2022/05/20 00:44:13;;;;;;;10.65;9.77;;;16.30;99.90;;;17.20;100.00;98456.69;5201751;28;20206;-65
2022/05/20 00:46:46;;;;;;;12.60;11.40;;;16.30;99.90;;;17.20;100.00;98454.09;5198673;28;20312;-65
2022/05/20 00:49:19;;;;;;;11.07;10.07;;;16.40;99.90;;;17.10;100.00;98453.72;5202027;28;20513;-66
2022/05/20 00:51:54;;;;;;;11.43;10.45;;;16.20;99.90;;;17.12;100.00;98451.19;5203508;28;20586;-65
2022/05/20 00:54:33;;;;;;;11.95;10.95;;;16.20;99.90;;;17.14;100.00;98449.56;5208289;28;20227;-66
2022/05/20 00:57:10;;;;;;;11.80;10.73;;;16.40;99.90;;;17.17;100.00;98453.94;5201625;28;20297;-65
2022/05/20 00:59:51;;;;;;;12.80;11.63;;;16.30;99.90;;;17.17;100.00;98453.94;5200028;28;20630;-65
2022/05/20 01:02:27;;;;;;;12.18;10.95;;;16.30;99.90;;;17.03;100.00;98443.09;5198593;28;20198;-64
2022/05/20 01:05:03;;;;;;;11.93;10.93;;;16.20;99.90;;;16.92;100.00;98441.75;5200451;28;20201;-65
2022/05/20 01:07:40;;;;;;;11.60;10.70;;;16.00;99.90;;;16.81;100.00;98431.84;5205469;28;20728;-65
2022/05/20 01:10:13;;;;;;;11.80;10.73;;;15.90;99.90;;;16.83;100.00;98431.94;5203651;28;20201;-65
2022/05/20 01:12:46;;;;;;;11.93;10.93;;;16.00;99.90;;;16.87;100.00;98428.66;5203108;28;20298;-65
2022/05/20 01:15:21;;;;;;;12.23;11.23;;;16.00;99.90;;;16.78;100.00;98425.69;5205068;28;20221;-65
2022/05/20 01:17:55;;;;;;;11.68;10.88;;;15.90;99.90;;;16.72;100.00;98433.16;5204146;28;20292;-65
2022/05/20 01:20:32;;;;;;;12.38;11.23;;;15.90;99.90;;;16.75;100.00;98428.97;5199229;28;20496;-65
2022/05/20 01:23:11;;;;;;;12.30;11.20;;;15.90;99.90;;;16.84;100.00;98428.53;5201872;28;20229;-65
2022/05/20 01:25:47;;;;;;;11.80;10.82;;;16.00;99.90;;;16.76;100.00;98427.28;5204217;28;20376;-64
2022/05/20 01:28:23;;;;;;;12.27;11.25;;;15.90;99.90;;;16.85;100.00;98430.28;5201191;28;20436;-65
2022/05/20 01:30:59;;;;;;;12.52;11.52;;;16.00;99.90;;;16.78;100.00;98438.59;5202815;28;20670;-65
2022/05/20 01:33:36;;;;;;;11.68;10.77;;;15.90;99.90;;;16.73;100.00;98434.91;5203891;28;20202;-65
2022/05/20 01:36:14;;;;;;;12.38;11.25;;;15.90;99.90;;;16.76;100.00;98435.03;5199974;28;20222;-65
2022/05/20 01:40:02;;;;;;;12.52;11.52;;;15.90;99.90;;;16.81;100.00;98425.81;5203184;28;20296;-65
2022/05/20 01:42:41;;;;;;;12.38;11.27;;;15.90;99.90;;;16.77;100.00;98427.38;5202866;28;20232;-65
2022/05/20 01:45:19;;;;;;;13.75;12.55;;;16.00;99.90;;;16.86;100.00;98434.63;5203378;28;20206;-64
2022/05/20 01:47:58;;;;;;;12.32;11.32;;;16.10;99.90;;;16.84;100.00;98423.34;5206894;28;20252;-65
2022/05/20 01:50:39;;;;;;;13.63;12.30;;;16.00;99.90;;;16.80;100.00;98426.63;5204559;28;20675;-65
2022/05/20 01:53:18;;;;;;;13.73;12.35;;;16.00;99.90;;;16.77;100.00;98426.47;5197057;28;20260;-64
2022/05/20 01:56:02;;;;;;;12.38;11.38;;;15.90;99.90;;;16.75;100.00;98425.53;5207441;28;20217;-64
2022/05/20 01:58:47;;;;;;;12.60;11.52;;;15.90;99.90;;;16.73;100.00;98419.41;5211112;28;20649;-64
2022/05/20 02:01:27;;;;;;;12.45;11.40;;;15.90;99.90;;;16.76;100.00;98415.28;5202999;28;20230;-64
2022/05/20 02:04:05;;;;;;;11.52;10.52;;;15.90;99.90;;;16.76;100.00;98411.78;5205244;28;20205;-64
2022/05/20 02:06:42;;;;;;;12.27;11.15;;;15.90;99.90;;;16.76;100.00;98411.78;5203275;28;20257;-64
2022/05/20 02:09:22;;;;;;;12.40;11.30;;;15.90;99.90;;;16.80;100.00;98411.16;5200031;28;20300;-65
2022/05/20 02:11:56;;;;;;;12.45;11.38;;;15.90;99.90;;;16.80;100.00;98417.19;5203631;28;20205;-65
2022/05/20 02:14:38;;;;;;;14.30;12.68;;;15.90;99.90;;;16.77;100.00;98411.91;5206661;28;20334;-65
2022/05/20 02:17:18;;;;;;;12.80;11.80;;;15.90;99.90;;;16.79;100.00;98404.19;5204519;28;20662;-65
2022/05/20 02:19:56;;;;;;;12.63;11.43;;;15.90;99.90;;;16.81;100.00;98411.19;5205353;28;20194;-64
2022/05/20 02:22:34;;;;;;;12.55;11.50;;;16.00;99.90;;;16.77;100.00;98414.47;5206390;28;20284;-66
2022/05/20 02:25:13;;;;;;;12.02;10.93;;;15.90;99.90;;;16.70;100.00;98408.97;5202544;28;20686;-64
2022/05/20 02:27:52;;;;;;;12.05;11.05;;;15.70;99.90;;;16.65;100.00;98414.81;5205579;28;20744;-64
2022/05/20 02:30:33;;;;;;;10.80;9.98;;;15.70;99.90;;;16.60;100.00;98415.44;5204964;28;20205;-65
2022/05/20 02:33:11;;;;;;;11.27;10.38;;;15.70;99.90;;;16.61;100.00;98410.31;5205839;28;20285;-65
2022/05/20 02:35:44;;;;;;;12.07;11.07;;;15.80;99.90;;;16.69;100.00;98414.94;5204033;28;20300;-65
2022/05/20 02:38:21;;;;;;;11.98;11.07;;;15.80;99.90;;;16.65;100.00;98409.66;5204876;28;20284;-65
2022/05/20 02:40:55;;;;;;;12.50;11.38;;;15.70;99.90;;;16.63;100.00;98403.53;5198128;28;20225;-65
2022/05/20 02:43:28;;;;;;;13.77;12.15;;;15.80;99.90;;;16.63;100.00;98405.25;5206348;28;20238;-66
2022/05/20 02:46:03;;;;;;;11.75;10.68;;;15.80;99.90;;;16.63;100.00;98407.81;5206559;28;20252;-64
2022/05/20 02:48:37;;;;;;;12.55;11.45;;;15.70;99.90;;;16.63;100.00;98419.03;5202970;28;20671;-65
2022/05/20 02:51:11;;;;;;;11.80;10.90;;;15.80;99.90;;;16.67;100.00;98426.06;5207572;28;20297;-64
2022/05/20 02:53:45;;;;;;;11.88;10.80;;;15.80;99.90;;;16.64;100.00;98425.94;5203912;28;20225;-65
2022/05/20 02:56:18;;;;;;;11.38;10.48;;;15.80;99.90;;;16.63;100.00;98424.19;5200214;28;20222;-65
2022/05/20 03:04:35;;;;;;;10.65;9.82;;;15.60;99.90;;;16.51;100.00;98415.94;5198865;28;20256;-64
2022/05/20 03:07:08;;;;;;;10.45;9.55;;;15.50;99.90;;;16.39;100.00;98417.97;5202735;28;20224;-65
2022/05/20 03:09:41;;;;;;;10.25;9.25;;;15.40;99.90;;;16.29;100.00;98416.69;5202364;28;20304;-64
2022/05/20 03:12:14;;;;;;;10.32;9.40;;;15.20;99.90;;;16.24;100.00;98420.78;5201412;28;20297;-65
2022/05/20 03:14:49;;;;;;;10.68;9.80;;;15.30;99.90;;;16.31;100.00;98416.75;5198573;28;20248;-65
2022/05/20 03:17:24;;;;;;;12.27;11.18;;;15.40;99.90;;;16.26;100.00;98411.41;5204466;28;20780;-65
2022/05/20 03:19:57;;;;;;;11.20;10.18;;;15.40;99.90;;;16.29;100.00;98415.81;5204158;28;20559;-64
2022/05/20 03:22:30;;;;;;;10.70;9.80;;;15.40;99.90;;;16.29;100.00;98416.69;5203350;28;20210;-65
2022/05/20 03:25:05;;;;;;;11.68;10.50;;;15.40;99.90;;;16.26;100.00;98421.72;5202373;28;20232;-64
2022/05/20 03:27:38;;;;;;;12.65;11.65;;;15.30;99.90;;;16.20;100.00;98416.31;5198558;28;20698;-64
2022/05/20 03:30:12;;;;;;;11.85;10.75;;;15.30;99.90;;;16.18;100.00;98412.75;5197534;28;20241;-65
2022/05/20 03:32:47;;;;;;;12.60;11.40;;;15.30;99.90;;;16.19;100.00;98410.25;5199890;28;20289;-65
2022/05/20 03:35:20;;;;;;;12.77;11.57;;;15.30;99.90;;;16.29;100.00;98413.25;5204290;28;20275;-64
2022/05/20 03:37:53;;;;;;;12.50;11.25;;;15.40;99.90;;;16.29;100.00;98423.56;5209729;28;20234;-65
2022/05/20 03:40:26;;;;;;;11.57;10.57;;;15.50;99.90;;;16.24;100.00;98417.31;5208083;28;20216;-64
2022/05/20 03:43:00;;;;;;;11.93;10.93;;;15.40;99.90;;;16.18;100.00;98421.38;5204730;28;20280;-65
2022/05/20 03:45:33;;;;;;;11.57;10.63;;;15.30;99.90;;;16.24;100.00;98425.06;5203376;28;20218;-66
2022/05/20 03:48:08;;;;;;;12.55;11.35;;;15.40;99.90;;;16.26;100.00;98426.00;5199082;28;20283;-65
2022/05/20 03:50:41;;;;;;;12.65;11.35;;;15.40;99.90;;;16.29;100.00;98426.16;5201042;28;20586;-64
2022/05/20 03:53:15;;;;;;;11.85;10.98;;;15.40;99.90;;;16.32;100.00;98434.00;5205525;28;20206;-65
2022/05/20 03:55:48;;;;;;;13.20;12.20;;;15.50;99.90;;;16.35;100.00;98426.41;5203500;28;20291;-65
2022/05/20 03:58:21;;;;;;;14.85;13.52;;;15.50;99.90;;;16.37;100.00;98430.81;5202851;28;20280;-65
2022/05/20 04:03:55;;;;;;;13.80;12.27;;;15.50;99.90;;;16.40;100.00;98430.06;5175644;28;20756;-64
2022/05/20 04:06:29;;;;;;;13.32;12.10;;;15.50;99.90;;;16.36;100.00;98423.88;5203462;28;20248;-64
2022/05/20 04:09:02;;;;;;;13.18;11.85;;;15.40;99.90;;;16.32;100.00;98419.41;5198363;28;20218;-66
2022/05/20 04:11:35;;;;;;;12.23;11.13;;;15.40;99.90;;;16.33;100.00;98413.44;5202220;28;20256;-64
2022/05/20 04:14:09;;;;;;;12.15;11.25;;;15.40;99.90;;;16.37;100.00;98414.47;5204486;28;20228;-64
2022/05/20 04:16:43;;;;;;;12.85;11.65;;;15.50;99.90;;;16.36;100.00;98423.00;5203782;28;20326;-65
2022/05/20 04:19:17;;;;;;;10.98;10.13;;;15.40;99.90;;;16.34;100.00;98416.88;5204114;28;20229;-64
2022/05/20 04:21:51;;;;;;;12.30;11.23;;;15.40;99.90;;;16.28;100.00;98422.69;5203343;28;20213;-64
2022/05/20 04:24:25;;;;;;;11.30;10.38;;;15.30;99.90;;;16.36;100.00;98410.09;5200969;28;20222;-63
2022/05/20 04:26:58;;;;;;;12.98;11.77;;;15.30;99.90;;;16.44;100.00;98422.50;5204841;28;20304;-64
2022/05/20 04:29:31;;;;;;;13.80;12.43;;;15.50;99.90;;;16.42;100.00;98412.94;5199370;28;20600;-64
2022/05/20 04:32:05;;;;;;;12.43;10.93;;;15.60;99.90;;;16.47;100.00;98411.44;5201941;28;20241;-64
2022/05/20 04:34:40;;;;;;;13.10;11.93;;;15.50;99.90;;;16.55;100.00;98415.22;5200786;28;20590;-64
2022/05/20 04:37:14;;;;;;;13.20;12.20;;;15.60;99.90;;;16.63;100.00;98413.88;5205517;28;20638;-63
2022/05/20 04:39:47;;;;;;;13.65;12.25;;;15.70;99.90;;;16.66;100.00;98406.25;5201800;28;20233;-63
2022/05/20 04:48:02;;;;;;;12.18;11.18;;;15.50;99.90;;;16.60;100.00;98418.91;5201192;28;20226;-63
2022/05/20 04:50:37;;;;;;;13.00;11.95;;;15.60;99.90;;;16.67;100.00;98410.59;5202252;28;20209;-62
2022/05/20 04:54:49;;;;;;;12.20;11.27;;;15.70;99.90;;;16.69;100.00;98409.78;5201467;28;20229;-63
2022/05/20 04:56:03;;;;;;;12.57;11.50;;;15.70;99.90;;;16.70;100.00;98414.13;5201131;28;20221;-62
2022/05/20 04:58:37;;;;;;;12.70;11.60;;;15.70;99.90;;;16.65;100.00;98417.41;5197075;28;20628;-64
2022/05/20 05:01:10;;;;;;;13.32;12.15;;;15.60;99.90;;;16.65;100.00;98414.81;5196344;28;20212;-61
2022/05/20 05:03:43;;;;;;;12.35;11.25;;;15.70;99.90;;;16.71;100.00;98415.88;5199184;28;21147;-61
2022/05/20 05:06:17;;;;;;;13.30;12.15;;;15.80;99.90;;;16.80;100.00;98416.31;5202419;28;20253;-61
2022/05/20 05:08:50;;;;;;;12.45;11.32;;;15.70;99.90;;;16.74;100.00;98410.84;5203197;28;20217;-62
2022/05/20 05:11:23;;;;;;;13.18;11.93;;;15.70;99.90;;;16.81;100.00;98418.06;5203758;28;20229;-63
2022/05/20 05:13:57;;;;;;;13.13;12.00;;;15.80;99.90;;;16.68;100.00;98414.03;5203639;28;20202;-61
2022/05/20 05:16:30;;;;;;;12.82;11.73;;;15.70;99.90;;;16.82;100.00;98414.66;5205529;28;20224;-62
2022/05/20 05:19:03;;;;;;;11.93;11.02;;;15.80;99.90;;;16.86;100.00;98413.97;5203891;28;20627;-62
2022/05/20 05:21:38;;;;;;;12.95;11.93;;;15.80;99.90;;;16.93;100.00;98417.69;5194321;28;20212;-62
2022/05/20 05:24:11;;;;;;;13.90;11.68;;;15.90;99.90;;;16.98;100.00;98421.34;5211028;28;20229;-62
2022/05/20 05:26:44;;;;;;;13.35;12.15;;;16.00;99.90;;;17.48;100.00;98415.63;5204717;28;20217;-62
2022/05/20 05:29:17;;;;;;;13.57;12.48;;;16.50;99.90;;;18.17;100.00;98419.91;5207881;28;20312;-63
2022/05/20 05:31:50;;;;;;;12.38;11.38;;;17.10;99.90;;;18.57;100.00;98421.31;5205563;28;20190;-62
2022/05/20 05:34:24;;;;;;;12.05;11.05;;;17.30;99.90;;;18.69;100.00;98414.00;5212323;28;20205;-63
2022/05/20 05:36:59;;;;;;;11.57;10.52;;;17.40;99.90;;;19.15;100.00;98420.72;5209447;28;20218;-63
2022/05/20 05:39:32;;;;;;;12.23;11.15;;;17.70;99.90;;;19.30;100.00;98408.22;5215738;28;20247;-62
2022/05/20 05:46:19;;;;;;;10.48;9.57;;;18.20;99.90;;;19.66;95.49;98410.25;5297483;22;20229;-63
2022/05/20 05:48:52;;;;;;;9.57;8.65;;;18.50;99.90;;;19.91;95.72;98413.53;5122617;28;20220;-60
2022/05/20 05:51:27;;;;;;;10.30;9.32;;;18.80;99.90;;;20.46;96.54;98415.13;5129607;28;20568;-60
2022/05/20 05:54:01;;;;;;;9.48;8.77;;;19.20;99.90;;;20.61;92.86;98407.75;5123717;28;20316;-63
2022/05/20 05:56:36;;;;;;;9.90;9.00;;;19.40;99.90;;;21.04;89.77;98401.03;5174478;28;20307;-63
2022/05/20 05:59:09;;;;;;;9.45;8.65;;;19.70;99.90;;;21.13;88.61;98401.25;5163350;28;20239;-64
2022/05/20 06:01:42;;;;;;;9.48;8.60;;;19.90;99.90;;;21.44;85.52;98398.53;5139931;28;20304;-64
2022/05/20 06:04:16;;;;;;;10.25;9.23;;;20.20;99.90;;;21.71;84.03;98396.53;5131244;28;20212;-64
2022/05/20 06:06:49;;;;;;;9.68;8.55;;;20.40;99.90;;;21.90;82.51;98397.81;5115280;28;20229;-64
2022/05/20 06:09:24;;;;;;;9.25;8.38;;;20.50;99.90;;;22.07;82.18;98395.53;5118559;28;20307;-65
2022/05/20 06:11:57;;;;;;;9.07;8.27;;;20.50;99.90;;;21.93;83.39;98395.25;5125231;28;20219;-64
2022/05/20 06:14:30;;;;;;;8.18;7.53;;;20.50;99.90;;;22.40;81.71;98397.94;5127557;28;20286;-64
2022/05/20 06:17:04;;;;;;;8.93;8.02;;;20.70;99.90;;;22.57;81.34;98407.81;5127214;28;20442;-64
2022/05/20 06:19:37;;;;;;;8.65;7.78;;;20.80;99.90;;;22.71;78.41;98395.91;5127423;28;20197;-64
2022/05/20 06:22:10;;;;;;;7.97;7.18;;;20.90;99.90;;;23.15;78.96;98398.41;5117462;28;20228;-64
2022/05/20 06:24:45;;;;;;;8.15;7.30;;;21.20;99.90;;;23.40;77.72;98394.44;5115581;28;20304;-64
2022/05/20 06:27:18;;;;;;;8.30;7.60;;;21.50;99.90;;;23.82;78.73;98399.41;5119207;28;20643;-64
2022/05/20 06:29:54;;;;;;;8.35;7.65;;;21.90;99.90;;;24.20;73.55;98401.59;5121354;28;22068;-64
2022/05/20 06:32:27;;;;;;;8.05;7.47;;;22.20;99.90;;;24.54;72.55;98390.69;5114932;28;20287;-64
2022/05/20 06:40:45;;;;;;;8.57;7.78;;;22.50;99.90;;;24.26;73.45;98385.13;5119024;29;20997;-64
2022/05/20 06:43:21;;;;;;;7.93;7.32;;;22.50;99.90;;;24.60;73.96;98381.16;5113918;28;20240;-64
2022/05/20 06:45:57;;;;;;;8.30;7.50;;;22.80;99.90;;;24.85;70.79;98382.25;5160700;28;20228;-64
2022/05/20 06:48:53;;;;;;;8.65;7.60;;;23.20;99.90;;;25.29;70.80;98373.03;5122230;28;20810;-63
2022/05/20 06:51:29;;;;;;;8.40;6.82;;;23.50;99.90;;;25.42;67.98;98381.84;5155470;28;20250;-64
2022/05/20 06:54:04;;;;;;;7.25;6.68;;;23.50;99.90;;;25.75;68.66;98376.78;5130314;28;20287;-63
2022/05/20 06:56:41;;;;;;;7.25;6.55;;;23.90;99.90;;;26.08;67.77;98385.72;5119575;28;20255;-63
2022/05/20 06:59:15;;;;;;;7.70;6.95;;;24.10;99.90;;;26.25;64.87;98376.16;5120109;29;20293;-63
2022/05/20 07:01:48;;;;;;;7.70;6.80;;;24.30;99.90;;;26.66;65.85;98377.13;5118131;28;20200;-61
2022/05/20 07:04:41;;;;;;;7.30;6.70;;;24.60;99.90;;;26.98;64.67;98379.78;5130506;28;20199;-63
2022/05/20 07:07:14;;;;;;;6.88;6.35;;;24.90;99.90;;;27.27;62.92;98376.28;5120356;28;20331;-62
2022/05/20 07:09:47;;;;;;;7.70;7.00;;;25.20;99.90;;;27.53;63.03;98378.88;5121699;28;20228;-63
2022/05/20 07:12:22;;;;;;;6.93;6.30;;;25.30;99.90;;;27.56;60.95;98384.13;5115704;28;20676;-64
2022/05/20 07:14:55;;;;;;;6.45;5.97;;;25.50;99.90;;;27.84;61.68;98380.56;5120538;29;20632;-62
2022/05/20 07:17:28;;;;;;;6.93;6.22;;;25.70;99.90;;;28.05;59.95;98376.09;5130404;28;20703;-63
2022/05/20 07:20:02;;;;;;;6.65;5.88;;;25.80;99.90;;;28.36;60.43;98371.56;5182636;28;20575;-62
2022/05/20 07:22:35;;;;;;;6.72;6.18;;;26.00;99.90;;;28.19;57.79;98371.66;5123598;28;20307;-62
2022/05/20 07:25:09;;;;;;;6.38;5.88;;;26.10;99.90;;;28.43;60.08;98367.16;5162003;28;20200;-63
2022/05/20 07:27:45;;;;;;;6.63;6.03;;;26.20;99.90;;;28.60;58.60;98365.28;5172248;28;20224;-63
2022/05/20 07:30:18;;;;;;;6.32;5.85;;;26.30;99.90;;;29.00;57.52;98362.34;5164229;28;20223;-65
2022/05/20 07:32:51;;;;;;;6.47;5.88;;;26.70;99.90;;;29.13;55.12;98364.03;5162213;28;20204;-62
2022/05/20 07:35:25;;;;;;;6.72;6.13;;;26.80;99.90;;;29.55;53.89;98361.84;5170965;28;20240;-62
2022/05/20 07:37:58;;;;;;;6.65;6.13;;;27.00;99.90;;;29.79;55.98;98363.38;5178394;28;20200;-62
2022/05/20 07:40:31;;;;;;;6.93;6.22;;;27.00;99.90;;;29.85;52.07;98362.41;5152216;28;20285;-63
2022/05/20 07:43:06;;;;;;;6.38;5.82;;;27.10;99.90;;;30.05;53.22;98363.03;5181009;28;20326;-64
2022/05/20 07:45:40;;;;;;;6.32;5.78;;;27.30;99.90;;;30.36;52.30;98362.66;5126604;28;20202;-64
2022/05/20 07:48:13;;;;;;;6.03;5.50;;;27.60;99.90;;;30.64;51.15;98367.50;5114253;28;20750;-65
2022/05/20 07:50:52;;;;;;;6.00;5.50;;;27.80;99.90;;;30.82;49.74;98364.63;5142930;28;20274;-62
2022/05/20 07:53:33;;;;;;;6.65;5.90;;;28.00;99.90;;;30.81;49.10;98360.22;5117828;28;20238;-62
2022/05/20 07:56:12;;;;;;;5.72;5.30;;;27.90;99.90;;;30.89;50.47;98350.41;5128943;28;20219;-62
2022/05/20 07:58:51;;;;;;;6.90;6.30;;;28.20;99.90;;;31.05;49.91;98355.44;5123138;28;20224;-62
2022/05/20 08:01:27;;;;;;;6.25;5.63;;;28.20;99.90;;;31.40;49.18;98349.56;5118650;29;20277;-61
2022/05/20 08:06:57;;;;;;;5.85;5.45;;;28.70;99.90;;;31.20;49.08;98348.13;5124062;28;20662;-63
2022/05/20 08:09:31;;;;;;;7.18;5.93;;;28.80;99.90;;;30.88;52.76;98345.19;5170349;28;20212;-65
2022/05/20 08:12:05;;;;;;;6.07;5.55;;;28.90;99.90;;;30.44;51.41;98344.06;5144926;28;20201;-63
2022/05/20 08:14:49;;;;;;;6.32;5.72;;;28.80;99.90;;;30.64;51.95;98338.47;5137751;28;20644;-63
2022/05/20 08:17:25;;;;;;;7.30;5.72;;;29.00;99.90;;;30.88;51.83;98330.19;5155581;28;20246;-62
2022/05/20 08:19:58;;;;;;;6.22;5.60;;;29.40;99.90;;;30.86;51.15;98334.63;5117270;28;20231;-62
2022/05/20 08:22:32;;;;;;;6.07;5.57;;;29.40;99.90;;;30.76;52.54;98333.00;5121478;28;20200;-62
2022/05/20 08:25:06;;;;;;;6.55;5.95;;;29.30;99.90;;;30.64;54.22;98333.19;5172602;28;20251;-62
2022/05/20 08:27:40;;;;;;;5.88;5.28;;;29.30;99.90;;;30.55;54.14;98330.72;5122300;28;20306;-64
2022/05/20 08:30:19;;;;;;;5.97;5.47;;;29.30;99.90;;;30.85;52.19;98324.06;5116572;28;20327;-61
2022/05/20 08:32:52;;;;;;;6.72;5.65;;;29.70;99.90;;;31.03;52.49;98320.28;5180035;28;20196;-63
2022/05/20 08:35:27;;;;;;;6.32;5.72;;;29.70;99.90;;;31.02;52.49;98326.44;5175912;28;20201;-64
2022/05/20 08:38:04;;;;;;;6.18;5.57;;;30.00;99.90;;;30.97;51.65;98329.16;5154572;28;20215;-64
2022/05/20 08:40:43;;;;;;;5.30;4.90;;;29.80;99.90;;;31.33;50.22;98319.69;5168091;28;20203;-63
2022/05/20 08:43:22;;;;;;;5.95;5.30;;;30.20;97.60;;;31.24;45.87;98322.50;5163617;28;20234;-64
2022/05/20 08:45:57;;;;;;;5.90;5.30;;;30.30;95.70;;;31.36;45.60;98316.16;5179867;28;20649;-63
2022/05/20 08:48:31;;;;;;;6.68;5.22;;;30.40;95.60;;;31.47;45.02;98311.53;5162364;28;20234;-62
2022/05/20 08:51:04;;;;;;;6.43;5.82;;;30.40;95.00;;;31.55;45.70;98300.81;5157475;28;20516;-62
2022/05/20 08:53:41;;;;;;;5.47;5.00;;;30.50;95.20;;;31.76;45.62;98304.78;5172102;28;20200;-62
2022/05/20 08:56:19;;;;;;;6.45;5.65;;;30.60;95.10;;;31.81;45.20;98297.63;5156620;28;20224;-62
2022/05/20 08:58:56;;;;;;;5.20;4.63;;;30.70;94.30;;;31.78;41.95;98298.56;5161528;28;20585;-62
2022/05/20 09:01:35;;;;;;;4.95;4.55;;;30.60;92.70;;;31.71;44.64;98291.69;5189591;28;20200;-62
2022/05/20 09:04:12;;;;;;;5.28;4.78;;;30.70;94.80;;;31.86;43.42;98291.34;5181354;28;20231;-62
2022/05/20 09:07:00;;;;;;;5.38;4.88;;;30.90;93.20;;;31.97;44.13;98287.63;5127836;28;20228;-61
2022/05/20 09:09:44;;;;;;;5.30;4.80;;;30.80;93.70;;;31.76;42.43;98283.63;5174428;28;20349;-62
2022/05/20 09:12:32;;;;;;;6.68;5.50;;;30.90;92.50;;;31.64;43.57;98284.75;5120471;28;20345;-61
2022/05/20 09:18:12;;;;;;;5.38;4.85;;;30.70;92.10;;;31.81;42.20;98281.75;5150969;28;20209;-62
2022/05/20 09:20:49;;;;;;;5.85;5.25;;;31.00;91.30;;;31.91;40.59;98280.69;5132673;28;20725;-61
2022/05/20 09:23:24;;;;;;;5.45;4.93;;;31.00;90.60;;;31.96;41.96;98275.28;5156953;28;20254;-60
2022/05/20 09:26:06;;;;;;;5.28;4.80;;;30.90;91.90;;;32.15;40.81;98276.63;5184779;28;20215;-60
2022/05/20 09:28:42;;;;;;;5.55;4.85;;;31.00;91.00;;;32.26;39.10;98271.94;5170135;28;20250;-61
2022/05/20 09:31:22;;;;;;;4.75;4.35;;;31.20;89.20;;;32.34;39.28;98258.56;5183316;28;20696;-62
2022/05/20 09:34:11;;;;;;;5.47;4.95;;;31.20;88.90;;;32.35;39.09;98254.13;5116550;28;20250;-62
2022/05/20 09:36:51;;;;;;;4.90;4.50;;;31.20;89.20;;;32.39;39.57;98250.47;5157123;28;20220;-58
2022/05/20 09:39:31;;;;;;;5.75;4.72;;;31.20;89.20;;;32.32;39.05;98247.13;5131000;28;20215;-60
2022/05/20 09:42:15;;;;;;;6.55;4.43;;;31.20;88.20;;;32.42;39.02;98242.47;5131606;28;20197;-57
2022/05/20 09:44:52;;;;;;;5.00;4.50;;;31.30;87.30;;;32.43;36.85;98244.22;5143814;28;20197;-58
2022/05/20 09:47:32;;;;;;;5.00;4.50;;;31.30;83.80;;;32.30;36.28;98239.19;5133013;28;20235;-62
2022/05/20 09:50:26;;;;;;;4.60;4.20;;;31.20;83.70;;;32.34;37.06;98239.13;5161077;28;20590;-61
2022/05/20 09:53:03;;;;;;;6.20;4.80;;;31.30;85.30;;;32.37;37.18;98234.66;5160333;28;20723;-59
2022/05/20 09:55:39;;;;;;;5.07;4.55;;;31.40;83.40;;;32.46;37.21;98241.53;5181419;28;20193;-61
2022/05/20 09:58:27;;;;;;;6.05;5.10;;;31.50;85.00;;;32.42;36.59;98226.56;5202484;28;20192;-60
2022/05/20 10:01:05;;;;;;;4.75;4.35;;;31.40;82.10;;;32.60;36.13;98225.31;5174285;28;20200;-58
2022/05/20 10:03:41;;;;;;;5.93;4.20;;;31.40;83.30;;;32.49;35.04;98209.69;5177879;28;20200;-60
2022/05/20 10:06:24;;;;;;;6.78;4.50;;;31.40;80.00;;;32.42;36.27;98216.00;5169659;28;20564;-60
2022/05/20 10:09:09;;;;;;;5.10;4.40;;;31.40;82.80;;;32.42;36.43;98221.28;5152226;28;20204;-60
2022/05/20 10:11:58;;;;;;;4.93;4.40;;;31.40;82.90;;;32.21;36.00;98202.38;5194994;28;20309;-60
2022/05/20 10:14:45;;;;;;;5.38;4.30;;;31.30;81.00;;;32.39;35.65;98205.47;5185518;28;20250;-61
2022/05/20 10:17:42;;;;;;;4.97;4.53;;;31.30;80.30;;;32.37;36.53;98209.97;5143230;28;20679;-59
2022/05/20 10:20:26;;;;;;;6.07;4.25;;;31.30;82.20;;;32.26;35.93;98200.50;5147930;28;20211;-57
2022/05/20 10:23:10;;;;;;;6.10;4.32;;;31.30;80.40;;;32.40;37.25;98208.09;5170307;28;20287;-63
2022/05/20 10:25:51;;;;;;;6.07;4.63;;;31.60;82.90;;;32.35;36.96;98194.13;5162547;28;20196;-58
2022/05/20 10:34:36;;;;;;;4.93;4.43;;;31.30;81.50;;;32.14;37.42;98178.78;5169581;28;20208;-59
2022/05/20 10:37:20;;;;;;;6.22;4.63;;;31.20;82.80;;;32.13;36.69;98169.09;5164512;28;20224;-61
2022/05/20 10:40:25;;;;;;;4.82;4.25;;;31.30;81.30;;;32.03;36.08;98163.16;5160708;28;20585;-60
2022/05/20 10:43:17;;;;;;;5.10;4.60;;;31.10;79.20;;;32.10;36.01;98162.09;5163547;28;20258;-58
2022/05/20 10:49:17;;;;;;;5.25;4.75;;;31.30;79.20;;;32.09;36.13;98160.38;5165137;28;20611;-59
2022/05/20 10:52:14;;;;;;;5.00;4.20;;;31.20;80.40;;;32.08;35.62;98153.34;5158227;28;20250;-61
2022/05/20 10:55:00;;;;;;;4.85;4.40;;;31.30;78.90;;;32.18;35.80;98154.84;5146497;28;20196;-59
2022/05/20 10:58:26;;;;;;;6.20;4.60;;;31.30;79.30;;;31.92;35.60;98157.28;5158069;28;20267;-57
2022/05/20 11:01:05;;;;;;;4.93;4.43;;;31.10;78.90;;;31.89;34.80;98152.03;5158818;28;20235;-59
2022/05/20 11:04:34;;;;;;;5.45;4.95;;;31.10;77.00;;;31.72;35.44;98142.69;5168396;28;20207;-60
2022/05/20 11:07:31;;;;;;;5.40;4.57;;;31.00;78.40;;;31.68;36.46;98138.41;5135062;28;20250;-62
2022/05/20 11:10:30;;;;;;;4.93;4.43;;;30.90;79.20;;;31.71;36.52;98143.63;5117665;28;20295;-57
2022/05/20 11:13:16;;;;;;;5.38;4.95;;;31.00;80.10;;;31.80;36.35;98137.25;5153264;28;20733;-56
2022/05/20 11:16:17;;;;;;;4.57;4.18;;;31.00;79.60;;;31.71;36.26;98133.03;5119393;28;20647;-59
2022/05/20 11:19:23;;;;;;;5.05;4.55;;;30.80;79.10;;;31.53;36.15;98118.47;5120279;28;20208;-61
2022/05/20 11:22:32;;;;;;;5.10;4.70;;;30.60;78.60;;;31.55;37.04;98119.31;5138937;28;20232;-61
2022/05/20 11:25:20;;;;;;;5.32;4.88;;;30.60;80.70;;;31.56;36.88;98115.78;5153778;28;21112;-61
2022/05/20 11:28:25;;;;;;;5.43;4.82;;;30.60;80.20;;;31.53;36.67;98112.31;5116813;28;20336;-59
2022/05/20 11:31:15;;;;;;;5.00;4.50;;;30.70;80.50;;;31.52;37.39;98106.16;5151442;28;20690;-61
2022/05/20 11:34:04;;;;;;;5.20;4.70;;;30.70;80.90;;;31.63;37.52;98109.41;5142030;28;20215;-60